WetterOnline ( https://www.wetteronline.de )

Wetter aktuell Chemnitz

Aktuelles Wetter: Chemnitz (420m)

6-stündlich | Neueste Meldungen
Ortszeit Temperatur Wetter
Di, 15.06. 2:00 16.3° C wolkig
Mo, 14.06. 20:00 20.3° C wolkenlos
Mo, 14.06. 14:00 20.5° C wolkenlos
Mo, 14.06. 8:00 13.5° C wolkenlos
Mo, 14.06. 2:00 10.4° C wolkenlos
So, 13.06. 20:00 14.8° C leicht bewölkt
So, 13.06. 14:00 13.1° C bedeckt
So, 13.06. 8:00 10.3° C bedeckt
Ortszeit Temperatur Wetter
Di, 15.06. 5:30 14.7° C wolkig
Di, 15.06. 5:20 14.7° C wolkig
Di, 15.06. 5:10 15.3° C wolkig
Di, 15.06. 5:00 14.2° C wolkig
Di, 15.06. 4:50 14.2° C wolkig
Di, 15.06. 4:40 13.9° C wolkig
Di, 15.06. 4:30 14.3° C wolkig
Di, 15.06. 4:00 15.0° C wolkig
Ortszeit Relative Feuchte Sichtweite
Di, 15.06. 2:00 65% 50 km
Mo, 14.06. 20:00 60% 50 km
Mo, 14.06. 14:00 44% 45 km
Mo, 14.06. 8:00 71% 30 km
Mo, 14.06. 2:00 76% 17 km
So, 13.06. 20:00 58% 50 km
So, 13.06. 14:00 60% 60 km
So, 13.06. 8:00 78% 45 km
Ortszeit Relative Feuchte Sichtweite
Di, 15.06. 5:30 71% 40 km
Di, 15.06. 5:20 71% -
Di, 15.06. 5:10 69% -
Di, 15.06. 5:00 74% 40 km
Di, 15.06. 4:50 74% -
Di, 15.06. 4:40 76% -
Di, 15.06. 4:30 74% 40 km
Di, 15.06. 4:00 71% 50 km
Ortszeit Niederschlagsmenge Niederschlagsart
Di, 15.06. 2:00 0.0 l/m2 in 6 Std. -
Mo, 14.06. 20:00 0.0 l/m2 in 12 Std. -
Mo, 14.06. 14:00 0.0 l/m2 in 6 Std. -
Mo, 14.06. 8:00 0.0 l/m2 in 12 Std. -
Mo, 14.06. 2:00 0.0 l/m2 in 6 Std. -
So, 13.06. 20:00 0.0 l/m2 in 12 Std. -
So, 13.06. 14:00 0.0 l/m2 in 6 Std. -
So, 13.06. 8:00 0.0 l/m2 in 12 Std. -
Ortszeit Niederschlagsmenge Niederschlagsart
Di, 15.06. 5:30 0.0 l/m2 in 1 Std. -
Di, 15.06. 5:20 keine Meldung -
Di, 15.06. 5:10 keine Meldung -
Di, 15.06. 5:00 0.0 l/m2 in 1 Std. -
Di, 15.06. 4:50 keine Meldung -
Di, 15.06. 4:40 keine Meldung -
Di, 15.06. 4:30 0.0 l/m2 in 1 Std. -
Di, 15.06. 4:00 0.0 l/m2 in 1 Std. -
Ortszeit Stärke Spitze Richtung
km/h Bft. km/h Grad Sektor
Di, 15.06. 2:00 7 2 11 170° S
Mo, 14.06. 20:00 9 2 20 350° N
Mo, 14.06. 14:00 6 1 15 260° W
Mo, 14.06. 8:00 7 2 14 240° SW
Mo, 14.06. 2:00 11 2 22 200° S
So, 13.06. 20:00 13 3 33 330° NW
So, 13.06. 14:00 20 4 35 320° NW
So, 13.06. 8:00 15 3 37 290° W
Ortszeit Stärke Spitze Richtung
km/h Bft. km/h Grad Sektor
Di, 15.06. 5:30 7 2 11 200° S
Di, 15.06. 5:20 7 2 - 200° S
Di, 15.06. 5:10 7 2 - 210° SW
Di, 15.06. 5:00 6 1 13 200° S
Di, 15.06. 4:50 6 1 - 200° S
Di, 15.06. 4:40 11 2 - 190° S
Di, 15.06. 4:30 11 2 14 190° S
Di, 15.06. 4:00 4 1 11 200° S
Ortszeit Untergrenze Bedeckung Gattung
total tief tief mittel hoch
Di, 15.06. 2:00 10500 m 8/8 0/8 - - -
Mo, 14.06. 20:00 - 0/8 0/8 - - -
Mo, 14.06. 14:00 - 0/8 0/8 - - -
Mo, 14.06. 8:00 - 0/8 0/8 - - -
Mo, 14.06. 2:00 - 0/8 0/8 - - -
So, 13.06. 20:00 1470 m 3/8 3/8 - - -
So, 13.06. 14:00 1080 m 8/8 8/8 - - -
So, 13.06. 8:00 450 m 8/8 8/8 - - -
Ortszeit Bedeckungsgrad in Achtel und Wolkenuntergrenze
Di, 15.06. 5:30 8(9000m) 8(12000m)
Di, 15.06. 5:20 8(9000m) 8(12000m)
Di, 15.06. 5:10 8(9000m) 8(10500m)
Di, 15.06. 5:00 8(9000m) 8(10500m) 8(10500m)
Di, 15.06. 4:50 8(9000m) 8(10500m) 8(10500m)
Di, 15.06. 4:40 8(9000m) 8(10500m) 8(10500m)
Di, 15.06. 4:30 8(9000m) 8(10500m) 8(10500m)
Di, 15.06. 4:00 8(9000m) 8(10500m)
Ortszeit Luftdruck NN (hPa) Tendenz (hPa in 3 Std.)
Di, 15.06. 2:00 1019 - 0,8
Mo, 14.06. 20:00 1019 - 1,0
Mo, 14.06. 14:00 1021 - 1,8
Mo, 14.06. 8:00 1025 + 0,1
Mo, 14.06. 2:00 1027 - 0,1
So, 13.06. 20:00 1026 - 0,2
So, 13.06. 14:00 1027 + 0,8
So, 13.06. 8:00 1025 + 1,5
Ortszeit Luftdruck NN (hPa) Tendenz (hPa in 3 Std.)
Di, 15.06. 5:30 1019 0,0
Di, 15.06. 5:20 1019 keine Meldung
Di, 15.06. 5:10 1019 keine Meldung
Di, 15.06. 5:00 1019 - 0,1
Di, 15.06. 4:50 1019 keine Meldung
Di, 15.06. 4:40 1019 keine Meldung
Di, 15.06. 4:30 1019 - 0,7
Di, 15.06. 4:00 1019 - 0,5
Ortszeit Schneehöhe (cm)
Di, 15.06. 2:00 -
Mo, 14.06. 20:00 -
Mo, 14.06. 14:00 -
Mo, 14.06. 8:00 -
Mo, 14.06. 2:00 -
So, 13.06. 20:00 -
So, 13.06. 14:00 -
So, 13.06. 8:00 -
Ortszeit Schneehöhe (cm)
Di, 15.06. 5:30 -
Di, 15.06. 5:20 -
Di, 15.06. 5:10 -
Di, 15.06. 5:00 -
Di, 15.06. 4:50 -
Di, 15.06. 4:40 -
Di, 15.06. 4:30 -
Di, 15.06. 4:00 -
Link zu dieser Seite / Seite empfehlen

Das Wetter in ...